createdAt,value
2023-03-28T00:01:05.374Z,7.40
2023-03-28T00:03:35.996Z,7.50
2023-03-28T00:06:05.661Z,7.50
2023-03-28T00:08:33.071Z,7.70
2023-03-28T00:11:18.735Z,7.60
2023-03-28T00:13:53.685Z,7.60
2023-03-28T00:16:21.650Z,7.60
2023-03-28T00:18:50.856Z,7.60
2023-03-28T00:21:27.277Z,7.60
2023-03-28T00:23:55.951Z,7.50
2023-03-28T00:26:26.607Z,7.40
2023-03-28T00:28:54.750Z,7.50
2023-03-28T00:31:22.436Z,7.20
2023-03-28T00:33:49.385Z,7.20
2023-03-28T00:36:26.539Z,7.10
2023-03-28T00:38:53.957Z,7.10
2023-03-28T00:41:25.649Z,7.10
2023-03-28T00:43:54.524Z,7.10
2023-03-28T00:46:42.131Z,7.10
2023-03-28T00:49:26.168Z,7.20
2023-03-28T00:51:57.588Z,7.30
2023-03-28T00:54:28.173Z,7.20
2023-03-28T00:56:59.705Z,7.30
2023-03-28T00:59:29.973Z,7.30
2023-03-28T01:01:56.819Z,7.40
2023-03-28T01:04:27.237Z,7.30
2023-03-28T01:06:56.930Z,7.20
2023-03-28T01:09:24.576Z,7.10
2023-03-28T01:11:53.744Z,7.30
2023-03-28T01:14:23.274Z,7.10
2023-03-28T01:16:51.272Z,6.80
2023-03-28T01:19:50.444Z,6.90
2023-03-28T01:22:56.124Z,6.80
2023-03-28T01:25:44.926Z,6.70
2023-03-28T01:28:43.444Z,6.70
2023-03-28T01:31:19.468Z,6.50
2023-03-28T01:34:07.676Z,6.60
2023-03-28T01:36:48.128Z,6.70
2023-03-28T01:39:29.913Z,6.80
2023-03-28T01:42:22.684Z,6.70
2023-03-28T01:45:19.131Z,6.60
2023-03-28T01:48:03.703Z,6.60
2023-03-28T01:50:50.987Z,6.20
2023-03-28T01:53:26.546Z,6.40
2023-03-28T01:56:22.251Z,6.50
2023-03-28T01:58:56.846Z,6.70
2023-03-28T02:01:31.110Z,6.50
2023-03-28T02:04:02.553Z,6.70
2023-03-28T02:06:31.094Z,6.50
2023-03-28T02:08:58.685Z,6.50
2023-03-28T02:11:27.449Z,6.50
2023-03-28T02:14:14.564Z,6.50
2023-03-28T02:16:43.957Z,6.60
2023-03-28T02:19:12.583Z,6.60
2023-03-28T02:21:43.540Z,6.70
2023-03-28T02:24:12.266Z,6.60
2023-03-28T02:26:39.818Z,6.40
2023-03-28T02:29:09.341Z,6.60
2023-03-28T02:31:37.623Z,6.60
2023-03-28T02:34:04.550Z,6.50
2023-03-28T02:36:34.585Z,6.50
2023-03-28T02:39:16.733Z,6.40
2023-03-28T02:42:25.408Z,6.60
2023-03-28T02:45:21.691Z,6.40
2023-03-28T02:48:26.032Z,6.60
2023-03-28T02:51:20.254Z,6.70
2023-03-28T02:53:53.217Z,6.60
2023-03-28T02:56:37.052Z,6.60
2023-03-28T02:59:40.960Z,6.80
2023-03-28T03:02:08.396Z,7.40
2023-03-28T03:04:35.183Z,7.20
2023-03-28T03:07:02.580Z,7.30
2023-03-28T03:09:29.591Z,7.10
2023-03-28T03:11:56.308Z,7.00
2023-03-28T03:14:23.262Z,6.90
2023-03-28T03:16:51.680Z,6.90
2023-03-28T03:19:19.338Z,7.20
2023-03-28T03:21:46.591Z,7.30
2023-03-28T03:24:19.316Z,7.20
2023-03-28T03:26:46.600Z,7.20
2023-03-28T03:29:14.726Z,7.10
2023-03-28T03:31:41.806Z,7.30
2023-03-28T03:34:08.693Z,7.30
2023-03-28T03:36:35.481Z,7.30
2023-03-28T03:39:02.253Z,7.20
2023-03-28T03:41:28.960Z,7.10
2023-03-28T03:43:55.905Z,6.80
2023-03-28T03:46:22.698Z,6.80
2023-03-28T03:48:50.512Z,6.60
2023-03-28T03:51:18.067Z,6.70
2023-03-28T03:53:45.032Z,6.80
2023-03-28T03:56:11.738Z,6.80
2023-03-28T03:58:38.493Z,6.70
2023-03-28T04:01:05.478Z,6.60
2023-03-28T04:03:33.894Z,6.60
2023-03-28T04:06:02.037Z,6.40
2023-03-28T04:08:29.029Z,6.70
2023-03-28T04:10:55.745Z,6.80
2023-03-28T04:13:22.592Z,6.90
2023-03-28T04:15:49.442Z,6.90
2023-03-28T04:18:17.893Z,6.90
2023-03-28T04:20:57.062Z,6.90
2023-03-28T04:23:26.873Z,6.70
2023-03-28T04:25:57.426Z,6.70
2023-03-28T04:28:25.743Z,6.80
2023-03-28T04:30:54.624Z,6.80
2023-03-28T04:33:25.233Z,6.90
2023-03-28T04:35:57.201Z,7.00
2023-03-28T04:38:26.248Z,7.20
2023-03-28T04:40:57.685Z,7.20
2023-03-28T04:43:29.132Z,7.00
2023-03-28T04:45:56.861Z,6.80
2023-03-28T04:48:25.229Z,6.50
2023-03-28T04:50:52.825Z,6.20
2023-03-28T04:53:19.925Z,6.10
2023-03-28T04:55:51.144Z,5.90
2023-03-28T04:58:19.856Z,6.20
2023-03-28T05:00:47.461Z,6.30
2023-03-28T05:03:18.385Z,6.40
2023-03-28T05:05:49.742Z,6.40
2023-03-28T05:08:18.369Z,6.40
2023-03-28T05:10:46.142Z,6.40
2023-03-28T05:13:13.733Z,6.50
2023-03-28T05:15:40.528Z,6.60
2023-03-28T05:18:07.305Z,6.80
2023-03-28T05:20:34.443Z,7.00
2023-03-28T05:23:02.101Z,7.10
2023-03-28T05:25:30.447Z,7.20
2023-03-28T05:27:57.171Z,6.90
2023-03-28T05:30:23.918Z,6.90
2023-03-28T05:32:50.698Z,7.10
2023-03-28T05:35:17.611Z,7.30
2023-03-28T05:37:46.775Z,6.90
2023-03-28T05:40:15.452Z,6.40
2023-03-28T05:42:42.452Z,6.20
2023-03-28T05:45:12.447Z,6.20
2023-03-28T05:47:39.324Z,5.70
2023-03-28T05:50:07.363Z,6.00
2023-03-28T05:52:34.246Z,6.30
2023-03-28T05:55:01.035Z,6.20
2023-03-28T05:57:28.173Z,6.40
2023-03-28T05:59:54.961Z,6.80
2023-03-28T06:02:23.661Z,7.20
2023-03-28T06:04:53.655Z,7.50
2023-03-28T06:07:35.213Z,7.50
2023-03-28T06:10:10.628Z,7.40
2023-03-28T06:12:37.699Z,7.20
2023-03-28T06:15:05.166Z,7.40
2023-03-28T06:17:32.365Z,7.40
2023-03-28T06:19:59.146Z,7.50
2023-03-28T06:22:26.568Z,7.40
2023-03-28T06:24:53.483Z,7.70
2023-03-28T06:27:20.352Z,7.60
2023-03-28T06:29:47.095Z,7.70
2023-03-28T06:32:15.326Z,7.80
2023-03-28T06:34:42.139Z,7.70
2023-03-28T06:37:08.952Z,7.80
2023-03-28T06:39:35.899Z,7.90
2023-03-28T06:42:03.431Z,7.90
2023-03-28T06:44:31.116Z,8.10
2023-03-28T06:46:58.195Z,8.00
2023-03-28T06:49:25.336Z,7.90
2023-03-28T06:51:53.145Z,7.90
2023-03-28T06:54:19.921Z,8.20
2023-03-28T06:56:47.091Z,8.00
2023-03-28T06:59:13.963Z,7.90
2023-03-28T07:01:41.165Z,8.10
2023-03-28T07:04:08.030Z,8.20
2023-03-28T07:06:34.870Z,7.90
2023-03-28T07:09:02.530Z,8.10
2023-03-28T07:11:30.888Z,8.00
2023-03-28T07:13:57.645Z,7.70
2023-03-28T07:16:24.515Z,7.90
2023-03-28T07:18:51.370Z,8.20
2023-03-28T07:21:19.247Z,7.70
2023-03-28T07:23:46.123Z,7.70
2023-03-28T07:26:14.428Z,7.70
2023-03-28T07:28:41.685Z,7.60
2023-03-28T07:31:08.794Z,7.50
2023-03-28T07:33:38.055Z,7.60
2023-03-28T07:36:10.921Z,7.80
2023-03-28T07:38:37.752Z,7.90
2023-03-28T07:41:05.494Z,7.90
2023-03-28T07:43:32.336Z,7.90
2023-03-28T07:46:03.513Z,8.00
2023-03-28T07:48:30.633Z,7.90
2023-03-28T07:50:57.683Z,8.20
2023-03-28T07:53:25.097Z,8.20
2023-03-28T07:55:54.877Z,8.30
2023-03-28T07:58:22.892Z,8.30
2023-03-28T08:00:50.625Z,8.30
2023-03-28T08:03:18.792Z,8.00
2023-03-28T08:05:51.635Z,8.30
2023-03-28T08:08:20.386Z,8.20
2023-03-28T08:10:51.104Z,8.30
2023-03-28T08:13:20.830Z,8.10
2023-03-28T08:15:54.361Z,7.90
2023-03-28T08:18:24.397Z,8.00
2023-03-28T08:20:57.787Z,8.00
2023-03-28T08:23:26.419Z,7.90
2023-03-28T08:25:54.180Z,7.90
2023-03-28T08:28:22.256Z,8.30
2023-03-28T08:30:49.050Z,8.10
2023-03-28T08:33:16.683Z,8.20
2023-03-28T08:35:43.533Z,8.20
2023-03-28T08:38:11.336Z,8.30
2023-03-28T08:40:46.290Z,8.40
2023-03-28T08:43:29.685Z,8.50
2023-03-28T08:45:59.176Z,8.60
2023-03-28T08:48:41.156Z,8.60
2023-03-28T08:51:11.156Z,8.60
2023-03-28T08:53:43.901Z,8.70
2023-03-28T08:56:14.067Z,8.60
2023-03-28T08:59:12.747Z,8.50
2023-03-28T09:01:39.982Z,8.30
2023-03-28T09:04:07.039Z,8.50
2023-03-28T09:06:44.594Z,8.70
2023-03-28T09:09:35.480Z,8.80
2023-03-28T09:12:39.039Z,9.00
2023-03-28T09:15:46.591Z,9.00
2023-03-28T09:18:31.772Z,9.10
2023-03-28T09:21:22.753Z,9.10
2023-03-28T09:24:34.005Z,9.30
2023-03-28T09:27:12.981Z,9.60
2023-03-28T09:29:41.787Z,9.70
2023-03-28T09:32:33.553Z,9.50
2023-03-28T09:35:02.257Z,9.30
2023-03-28T09:37:35.689Z,9.50
2023-03-28T09:40:20.828Z,9.50
2023-03-28T09:43:13.268Z,9.70
2023-03-28T09:46:01.100Z,9.60
2023-03-28T09:48:31.006Z,9.90
2023-03-28T09:50:59.615Z,9.80
2023-03-28T09:53:32.923Z,9.60
2023-03-28T09:56:26.438Z,9.30
2023-03-28T09:59:05.248Z,9.50
2023-03-28T10:01:41.705Z,9.60
2023-03-28T10:04:17.726Z,9.60
2023-03-28T10:06:45.821Z,9.70
2023-03-28T10:09:28.396Z,9.70
2023-03-28T10:12:00.853Z,9.60
2023-03-28T10:14:36.457Z,9.60
2023-03-28T10:17:08.155Z,9.50
2023-03-28T10:19:38.275Z,9.50
2023-03-28T10:22:08.450Z,9.50
2023-03-28T10:24:35.974Z,9.30
2023-03-28T10:27:14.706Z,9.20
2023-03-28T10:29:41.881Z,9.40
2023-03-28T10:32:13.062Z,9.40
2023-03-28T10:34:41.210Z,9.50
2023-03-28T10:37:31.957Z,9.50
2023-03-28T10:40:07.774Z,9.40
2023-03-28T10:42:42.667Z,9.10
2023-03-28T10:45:24.054Z,9.40
2023-03-28T10:47:56.703Z,9.50
2023-03-28T10:50:41.992Z,9.50
2023-03-28T10:53:33.243Z,9.70
2023-03-28T10:56:28.135Z,9.40
2023-03-28T10:59:17.992Z,9.10
2023-03-28T11:02:12.274Z,9.40
2023-03-28T11:04:47.789Z,9.00
2023-03-28T11:07:39.281Z,8.80
2023-03-28T11:10:23.650Z,8.90
2023-03-28T11:12:59.475Z,8.70
2023-03-28T11:15:29.289Z,8.70
2023-03-28T11:18:14.315Z,8.90
2023-03-28T11:20:52.822Z,8.80
2023-03-28T11:23:31.975Z,8.60
2023-03-28T11:26:08.366Z,8.60
2023-03-28T11:28:46.060Z,8.80
2023-03-28T11:31:26.624Z,9.10
2023-03-28T11:34:00.332Z,9.20
2023-03-28T11:36:40.242Z,9.20
2023-03-28T11:39:18.267Z,9.20
2023-03-28T11:41:47.826Z,9.20
2023-03-28T11:44:20.619Z,9.10
2023-03-28T11:46:57.112Z,9.10
2023-03-28T11:49:29.804Z,9.20
2023-03-28T11:52:16.825Z,9.20
2023-03-28T11:54:53.655Z,9.10
2023-03-28T11:57:40.796Z,9.20
2023-03-28T12:00:36.517Z,9.50
2023-03-28T12:03:19.863Z,9.40
2023-03-28T12:06:00.002Z,9.20
2023-03-28T12:08:52.026Z,9.10
2023-03-28T12:11:46.794Z,8.90
2023-03-28T12:14:30.056Z,8.70
2023-03-28T12:16:58.781Z,9.00
2023-03-28T12:19:37.862Z,9.00
2023-03-28T12:22:15.431Z,8.70
2023-03-28T12:24:44.705Z,8.60
2023-03-28T12:27:20.424Z,8.60
2023-03-28T12:29:56.717Z,8.60
2023-03-28T12:32:45.285Z,8.60
2023-03-28T12:35:37.433Z,8.70
2023-03-28T12:38:12.906Z,8.80
2023-03-28T12:40:50.675Z,8.80
2023-03-28T12:43:19.717Z,8.80
2023-03-28T12:45:52.982Z,8.90
2023-03-28T12:48:41.140Z,9.30
2023-03-28T12:51:11.238Z,9.00
2023-03-28T12:53:59.186Z,9.00
2023-03-28T12:56:26.502Z,9.30
2023-03-28T12:58:53.853Z,9.00
2023-03-28T13:01:34.378Z,9.50
2023-03-28T13:04:27.662Z,9.50
2023-03-28T13:07:12.849Z,9.30
2023-03-28T13:09:45.200Z,9.00
2023-03-28T13:12:35.101Z,9.00
2023-03-28T13:15:03.908Z,9.30
2023-03-28T13:17:32.993Z,8.90
2023-03-28T13:20:15.592Z,9.00
2023-03-28T13:22:54.633Z,8.90
2023-03-28T13:25:39.939Z,9.20
2023-03-28T13:28:12.847Z,9.20
2023-03-28T13:30:45.468Z,9.30
2023-03-28T13:33:26.811Z,9.50
2023-03-28T13:35:59.526Z,9.40
2023-03-28T13:38:29.285Z,9.40
2023-03-28T13:41:02.693Z,9.10
2023-03-28T13:43:40.026Z,9.10
2023-03-28T13:46:12.838Z,8.90
2023-03-28T13:49:02.616Z,9.10
2023-03-28T13:51:33.629Z,9.10
2023-03-28T13:54:00.637Z,8.70
2023-03-28T13:56:32.350Z,8.70
2023-03-28T13:59:00.644Z,8.70
2023-03-28T14:01:37.282Z,8.60
2023-03-28T14:04:16.337Z,8.60
2023-03-28T14:06:43.155Z,8.70
2023-03-28T14:09:21.609Z,8.60
2023-03-28T14:11:50.029Z,8.70
2023-03-28T14:14:29.794Z,8.60
2023-03-28T14:16:57.454Z,8.60
2023-03-28T14:19:37.873Z,8.70
2023-03-28T14:22:13.412Z,9.10
2023-03-28T14:24:40.261Z,9.20
2023-03-28T14:27:14.365Z,9.20
2023-03-28T14:29:55.227Z,9.20
2023-03-28T14:32:32.651Z,9.40
2023-03-28T14:35:29.699Z,9.50
2023-03-28T14:37:58.630Z,9.50
2023-03-28T14:40:25.682Z,9.40
2023-03-28T14:43:05.259Z,9.50
2023-03-28T14:45:37.826Z,9.50
2023-03-28T14:48:08.742Z,9.30
2023-03-28T14:50:38.548Z,9.30
2023-03-28T14:53:09.498Z,9.60
2023-03-28T14:55:37.726Z,10.60
2023-03-28T14:58:06.461Z,9.60
2023-03-28T15:00:42.780Z,9.30
2023-03-28T15:03:17.627Z,9.60
2023-03-28T15:05:47.300Z,9.50
2023-03-28T15:08:31.657Z,9.60
2023-03-28T15:11:03.415Z,9.40
2023-03-28T15:13:37.090Z,9.30
2023-03-28T15:16:08.126Z,9.30
2023-03-28T15:18:46.845Z,9.20
2023-03-28T15:21:14.628Z,9.20
2023-03-28T15:24:12.495Z,9.20
2023-03-28T15:26:44.067Z,9.40
2023-03-28T15:29:16.833Z,9.50
2023-03-28T15:31:43.832Z,9.50
2023-03-28T15:34:18.327Z,9.50
2023-03-28T15:37:09.119Z,9.60
2023-03-28T15:39:36.050Z,9.40
2023-03-28T15:42:20.905Z,9.40
2023-03-28T15:45:10.834Z,9.40
2023-03-28T15:47:37.861Z,9.30
2023-03-28T15:50:07.509Z,9.50
2023-03-28T15:52:35.133Z,9.20
2023-03-28T15:55:03.152Z,9.30
2023-03-28T15:57:31.163Z,9.40
2023-03-28T15:59:58.831Z,9.50
2023-03-28T16:02:25.784Z,9.50
2023-03-28T16:05:04.839Z,9.40
2023-03-28T16:07:34.460Z,9.30
2023-03-28T16:10:01.307Z,9.50
2023-03-28T16:12:28.484Z,9.60
2023-03-28T16:14:55.715Z,9.60
2023-03-28T16:17:28.797Z,9.50
2023-03-28T16:19:56.191Z,9.30
2023-03-28T16:22:23.692Z,9.30
2023-03-28T16:24:54.539Z,9.40
2023-03-28T16:27:22.112Z,9.50
2023-03-28T16:29:49.057Z,9.90
2023-03-28T16:32:16.873Z,9.80
2023-03-28T16:34:44.574Z,9.60
2023-03-28T16:37:11.466Z,9.50
2023-03-28T16:39:38.742Z,9.70
2023-03-28T16:42:06.201Z,9.90
2023-03-28T16:44:33.462Z,9.90
2023-03-28T16:47:02.349Z,9.70
2023-03-28T16:49:30.032Z,9.90
2023-03-28T16:51:57.135Z,9.60
2023-03-28T16:54:24.601Z,9.70
2023-03-28T16:56:51.383Z,9.60
2023-03-28T16:59:18.230Z,9.50
2023-03-28T17:01:46.360Z,9.60
2023-03-28T17:04:13.654Z,9.30
2023-03-28T17:06:40.417Z,9.50
2023-03-28T17:09:07.191Z,9.60
2023-03-28T17:11:34.768Z,9.60
2023-03-28T17:14:01.784Z,9.50
2023-03-28T17:16:28.632Z,9.60
2023-03-28T17:18:55.610Z,9.50
2023-03-28T17:21:22.616Z,9.70
2023-03-28T17:23:50.987Z,9.70
2023-03-28T17:26:18.400Z,9.80
2023-03-28T17:28:45.805Z,9.50
2023-03-28T17:31:18.538Z,9.60
2023-03-28T17:33:47.116Z,9.60
2023-03-28T17:36:14.226Z,9.40
2023-03-28T17:38:41.005Z,9.60
2023-03-28T17:41:09.123Z,9.50
2023-03-28T17:43:36.063Z,9.40
2023-03-28T17:46:03.347Z,9.50
2023-03-28T17:48:30.388Z,9.60
2023-03-28T17:50:57.098Z,9.40
2023-03-28T17:53:24.053Z,9.50
2023-03-28T17:55:51.795Z,9.50
2023-03-28T17:58:18.535Z,9.60
2023-03-28T18:00:45.698Z,9.60
2023-03-28T18:03:12.806Z,9.50
2023-03-28T18:05:39.650Z,9.30
2023-03-28T18:08:06.534Z,9.40
2023-03-28T18:10:33.331Z,9.50
2023-03-28T18:13:00.021Z,9.50
2023-03-28T18:15:26.830Z,9.40
2023-03-28T18:17:53.693Z,9.40
2023-03-28T18:20:22.357Z,9.30
2023-03-28T18:22:50.490Z,9.30
2023-03-28T18:25:17.356Z,9.30
2023-03-28T18:27:44.163Z,9.40
2023-03-28T18:30:11.370Z,9.50
2023-03-28T18:32:38.210Z,9.40
2023-03-28T18:35:07.277Z,9.40
2023-03-28T18:37:34.474Z,9.40
2023-03-28T18:40:01.791Z,9.40
2023-03-28T18:42:30.072Z,9.30
2023-03-28T18:44:57.144Z,9.20
2023-03-28T18:47:24.197Z,9.40
2023-03-28T18:49:50.894Z,9.70
2023-03-28T18:52:17.598Z,9.60
2023-03-28T18:54:46.710Z,9.50
2023-03-28T18:57:13.576Z,9.30
2023-03-28T18:59:40.505Z,9.30
2023-03-28T19:02:12.575Z,9.30
2023-03-28T19:04:39.774Z,9.30
2023-03-28T19:07:06.540Z,9.40
2023-03-28T19:09:33.227Z,9.20
2023-03-28T19:12:01.292Z,9.40
2023-03-28T19:14:28.170Z,9.60
2023-03-28T19:16:55.373Z,9.60
2023-03-28T19:19:23.441Z,9.40
2023-03-28T19:21:51.829Z,9.30
2023-03-28T19:24:21.967Z,9.20
2023-03-28T19:26:49.647Z,9.40
2023-03-28T19:29:16.930Z,9.70
2023-03-28T19:31:44.114Z,9.60
2023-03-28T19:34:17.239Z,9.80
2023-03-28T19:36:44.197Z,9.80
2023-03-28T19:39:10.911Z,9.90
2023-03-28T19:41:37.717Z,9.70
2023-03-28T19:44:04.969Z,9.70
2023-03-28T19:46:36.216Z,9.70
2023-03-28T19:49:06.438Z,9.70
2023-03-28T19:51:33.546Z,9.60
2023-03-28T19:54:00.817Z,9.50
2023-03-28T19:56:28.103Z,9.40
2023-03-28T19:58:54.951Z,9.30
2023-03-28T20:01:23.350Z,9.40
2023-03-28T20:03:53.131Z,9.50
2023-03-28T20:06:21.821Z,9.60
2023-03-28T20:08:49.168Z,9.60
2023-03-28T20:11:18.327Z,9.50
2023-03-28T20:13:45.892Z,9.50
2023-03-28T20:16:13.750Z,9.60
2023-03-28T20:18:41.695Z,9.60
2023-03-28T20:21:11.725Z,9.90
2023-03-28T20:23:38.890Z,9.60
2023-03-28T20:26:18.717Z,9.80
2023-03-28T20:28:52.336Z,9.60
2023-03-28T20:31:19.648Z,9.60
2023-03-28T20:33:46.521Z,9.80
2023-03-28T20:36:13.426Z,9.80
2023-03-28T20:38:40.588Z,9.80
2023-03-28T20:41:15.807Z,9.70
2023-03-28T20:43:46.974Z,9.70
2023-03-28T20:46:18.452Z,9.70
2023-03-28T20:48:46.628Z,9.90
2023-03-28T20:51:16.984Z,9.90
2023-03-28T20:53:46.084Z,10.00
2023-03-28T20:56:13.744Z,10.00
2023-03-28T20:58:42.571Z,10.10
2023-03-28T21:01:12.250Z,10.20
2023-03-28T21:03:47.172Z,10.10
2023-03-28T21:06:26.130Z,10.10
2023-03-28T21:08:54.959Z,10.00
2023-03-28T21:11:25.957Z,10.10
2023-03-28T21:13:53.242Z,10.10
2023-03-28T21:16:21.616Z,10.20
2023-03-28T21:18:49.636Z,10.20
2023-03-28T21:21:18.023Z,10.20
2023-03-28T21:23:45.828Z,9.90
2023-03-28T21:26:16.262Z,9.80
2023-03-28T21:28:43.895Z,9.90
2023-03-28T21:31:13.866Z,9.70
2023-03-28T21:33:42.616Z,9.70
2023-03-28T21:36:11.518Z,9.80
2023-03-28T21:38:39.141Z,9.90
2023-03-28T21:41:07.597Z,9.90
2023-03-28T21:43:35.194Z,9.90
2023-03-28T21:46:03.274Z,9.90
2023-03-28T21:48:30.525Z,9.70
2023-03-28T21:50:59.281Z,9.90
2023-03-28T21:53:28.499Z,9.90
2023-03-28T21:55:56.303Z,9.90
2023-03-28T21:58:23.923Z,10.00
2023-03-28T22:00:50.962Z,10.20
2023-03-28T22:03:18.002Z,9.90
2023-03-28T22:05:45.480Z,9.70
2023-03-28T22:08:13.176Z,9.80
2023-03-28T22:10:49.382Z,9.70
2023-03-28T22:13:16.345Z,9.50
2023-03-28T22:15:43.123Z,9.70
2023-03-28T22:18:11.353Z,9.60
2023-03-28T22:20:39.904Z,9.60
2023-03-28T22:23:07.092Z,9.70
2023-03-28T22:25:38.184Z,9.70
2023-03-28T22:28:07.435Z,9.60
2023-03-28T22:30:35.209Z,9.70
2023-03-28T22:33:03.932Z,9.70
2023-03-28T22:35:32.266Z,9.60
2023-03-28T22:38:00.395Z,9.40
2023-03-28T22:40:27.484Z,8.70
2023-03-28T22:42:54.450Z,9.40
2023-03-28T22:45:22.695Z,9.20
2023-03-28T22:47:51.535Z,9.30
2023-03-28T22:50:19.099Z,9.50
2023-03-28T22:52:50.244Z,9.60
2023-03-28T22:55:17.655Z,9.70
2023-03-28T22:57:45.332Z,9.80
2023-03-28T23:00:13.821Z,9.80
2023-03-28T23:02:41.523Z,9.90
2023-03-28T23:05:09.448Z,9.80
2023-03-28T23:07:37.222Z,9.70
2023-03-28T23:10:05.959Z,9.70
2023-03-28T23:12:32.669Z,9.60
2023-03-28T23:14:59.483Z,9.60
2023-03-28T23:17:26.389Z,9.40
2023-03-28T23:19:54.293Z,9.70
2023-03-28T23:22:22.421Z,9.80
2023-03-28T23:24:52.115Z,9.70
2023-03-28T23:27:19.992Z,9.90
2023-03-28T23:29:46.752Z,9.90
2023-03-28T23:32:13.556Z,9.90
2023-03-28T23:34:40.355Z,9.80
2023-03-28T23:37:07.180Z,9.70
2023-03-28T23:39:33.984Z,9.90
2023-03-28T23:42:01.029Z,9.90
2023-03-28T23:44:27.935Z,9.80
2023-03-28T23:46:56.228Z,9.70
2023-03-28T23:49:23.675Z,9.70
2023-03-28T23:51:50.846Z,9.80
2023-03-28T23:54:18.642Z,9.70
2023-03-28T23:56:47.337Z,9.90
2023-03-28T23:59:14.038Z,10.00
